sensor_id;sensor_type;location;lat;lon;timestamp;pressure;altitude;pressure_sealevel;temperature;humidity
22688;BME280;11511;51.514;7.080;2024-02-23T00:01:51;98335.84;;;4.56;nan
22688;BME280;11511;51.514;7.080;2024-02-23T00:04:16;98337.97;;;4.48;nan
22688;BME280;11511;51.514;7.080;2024-02-23T00:06:43;98363.97;;;4.49;nan
22688;BME280;11511;51.514;7.080;2024-02-23T00:09:09;98380.03;;;4.40;nan
22688;BME280;11511;51.514;7.080;2024-02-23T00:11:35;98365.03;;;4.45;nan
22688;BME280;11511;51.514;7.080;2024-02-23T00:14:04;98377.66;;;4.35;nan
22688;BME280;11511;51.514;7.080;2024-02-23T00:16:29;98381.97;;;4.36;nan
22688;BME280;11511;51.514;7.080;2024-02-23T00:18:55;98388.88;;;4.37;nan
22688;BME280;11511;51.514;7.080;2024-02-23T00:21:20;98392.00;;;4.44;nan
22688;BME280;11511;51.514;7.080;2024-02-23T00:23:45;98385.25;;;4.40;nan
22688;BME280;11511;51.514;7.080;2024-02-23T00:26:10;98390.69;;;4.35;nan
22688;BME280;11511;51.514;7.080;2024-02-23T00:28:36;98411.38;;;4.38;nan
22688;BME280;11511;51.514;7.080;2024-02-23T00:31:01;98417.22;;;4.43;nan
22688;BME280;11511;51.514;7.080;2024-02-23T00:33:26;98411.09;;;4.45;nan
22688;BME280;11511;51.514;7.080;2024-02-23T00:35:51;98421.06;;;4.36;nan
22688;BME280;11511;51.514;7.080;2024-02-23T00:38:16;98422.81;;;4.36;nan
22688;BME280;11511;51.514;7.080;2024-02-23T00:40:42;98416.75;;;4.35;nan
22688;BME280;11511;51.514;7.080;2024-02-23T00:43:07;98430.84;;;4.31;nan
22688;BME280;11511;51.514;7.080;2024-02-23T00:45:32;98436.44;;;4.41;nan
22688;BME280;11511;51.514;7.080;2024-02-23T00:47:57;98446.31;;;4.53;nan
22688;BME280;11511;51.514;7.080;2024-02-23T00:50:23;98442.59;;;4.59;nan
22688;BME280;11511;51.514;7.080;2024-02-23T00:52:52;98439.22;;;4.57;nan
22688;BME280;11511;51.514;7.080;2024-02-23T00:55:17;98439.13;;;4.58;nan
22688;BME280;11511;51.514;7.080;2024-02-23T00:57:42;98441.31;;;4.49;nan
22688;BME280;11511;51.514;7.080;2024-02-23T01:00:08;98443.28;;;4.43;nan
22688;BME280;11511;51.514;7.080;2024-02-23T01:02:34;98441.53;;;4.44;nan
22688;BME280;11511;51.514;7.080;2024-02-23T01:04:59;98437.38;;;4.40;nan
22688;BME280;11511;51.514;7.080;2024-02-23T01:07:24;98442.72;;;4.56;nan
22688;BME280;11511;51.514;7.080;2024-02-23T01:09:50;98448.00;;;4.54;nan
22688;BME280;11511;51.514;7.080;2024-02-23T01:12:15;98449.91;;;4.51;nan
22688;BME280;11511;51.514;7.080;2024-02-23T01:14:40;98450.84;;;4.31;nan
22688;BME280;11511;51.514;7.080;2024-02-23T01:17:06;98449.72;;;4.36;nan
22688;BME280;11511;51.514;7.080;2024-02-23T01:19:31;98466.53;;;4.48;nan
22688;BME280;11511;51.514;7.080;2024-02-23T01:21:56;98469.06;;;4.50;nan
22688;BME280;11511;51.514;7.080;2024-02-23T01:24:27;98466.59;;;4.47;nan
22688;BME280;11511;51.514;7.080;2024-02-23T01:26:54;98472.88;;;4.42;nan
22688;BME280;11511;51.514;7.080;2024-02-23T01:29:20;98477.03;;;4.47;nan
22688;BME280;11511;51.514;7.080;2024-02-23T01:31:45;98484.44;;;4.56;nan
22688;BME280;11511;51.514;7.080;2024-02-23T01:34:11;98474.28;;;4.50;nan
22688;BME280;11511;51.514;7.080;2024-02-23T01:36:36;98481.41;;;4.46;nan
22688;BME280;11511;51.514;7.080;2024-02-23T01:39:02;98485.84;;;4.63;nan
22688;BME280;11511;51.514;7.080;2024-02-23T01:41:27;98494.47;;;4.65;nan
22688;BME280;11511;51.514;7.080;2024-02-23T01:43:52;98499.28;;;4.72;nan
22688;BME280;11511;51.514;7.080;2024-02-23T01:46:17;98498.38;;;4.73;nan
22688;BME280;11511;51.514;7.080;2024-02-23T01:48:44;98510.44;;;4.76;nan
22688;BME280;11511;51.514;7.080;2024-02-23T01:51:09;98508.25;;;4.67;nan
22688;BME280;11511;51.514;7.080;2024-02-23T01:53:36;98509.09;;;4.67;nan
22688;BME280;11511;51.514;7.080;2024-02-23T01:56:01;98517.56;;;4.72;nan
22688;BME280;11511;51.514;7.080;2024-02-23T01:58:27;98507.81;;;4.76;nan
22688;BME280;11511;51.514;7.080;2024-02-23T02:00:52;98504.50;;;4.72;nan
22688;BME280;11511;51.514;7.080;2024-02-23T02:03:18;98502.34;;;4.63;nan
22688;BME280;11511;51.514;7.080;2024-02-23T02:05:43;98501.50;;;4.63;nan
22688;BME280;11511;51.514;7.080;2024-02-23T02:08:09;98508.03;;;4.71;nan
22688;BME280;11511;51.514;7.080;2024-02-23T02:10:35;98509.31;;;4.63;nan
22688;BME280;11511;51.514;7.080;2024-02-23T02:13:04;98514.03;;;4.73;nan
22688;BME280;11511;51.514;7.080;2024-02-23T02:15:29;98512.06;;;4.79;nan
22688;BME280;11511;51.514;7.080;2024-02-23T02:17:54;98520.25;;;4.90;nan
22688;BME280;11511;51.514;7.080;2024-02-23T02:20:20;98521.44;;;4.83;nan
22688;BME280;11511;51.514;7.080;2024-02-23T02:22:48;98517.97;;;4.82;nan
22688;BME280;11511;51.514;7.080;2024-02-23T02:25:14;98521.28;;;4.86;nan
22688;BME280;11511;51.514;7.080;2024-02-23T02:27:39;98515.72;;;4.74;nan
22688;BME280;11511;51.514;7.080;2024-02-23T02:30:05;98529.69;;;4.73;nan
22688;BME280;11511;51.514;7.080;2024-02-23T02:32:30;98527.50;;;4.83;nan
22688;BME280;11511;51.514;7.080;2024-02-23T02:34:55;98533.41;;;4.87;nan
22688;BME280;11511;51.514;7.080;2024-02-23T02:37:21;98528.53;;;4.98;nan
22688;BME280;11511;51.514;7.080;2024-02-23T02:39:47;98537.28;;;4.97;nan
22688;BME280;11511;51.514;7.080;2024-02-23T02:42:12;98539.03;;;5.15;nan
22688;BME280;11511;51.514;7.080;2024-02-23T02:44:37;98544.56;;;4.90;nan
22688;BME280;11511;51.514;7.080;2024-02-23T02:47:03;98558.28;;;4.94;nan
22688;BME280;11511;51.514;7.080;2024-02-23T02:49:28;98566.28;;;4.91;nan
22688;BME280;11511;51.514;7.080;2024-02-23T02:51:54;98568.09;;;5.07;nan
22688;BME280;11511;51.514;7.080;2024-02-23T02:54:20;98554.91;;;4.73;nan
22688;BME280;11511;51.514;7.080;2024-02-23T02:56:49;98570.47;;;4.74;nan
22688;BME280;11511;51.514;7.080;2024-02-23T02:59:15;98578.16;;;4.78;nan
22688;BME280;11511;51.514;7.080;2024-02-23T03:01:41;98573.81;;;4.78;nan
22688;BME280;11511;51.514;7.080;2024-02-23T03:04:08;98582.28;;;4.83;nan
22688;BME280;11511;51.514;7.080;2024-02-23T03:06:33;98580.72;;;4.79;nan
22688;BME280;11511;51.514;7.080;2024-02-23T03:09:00;98588.72;;;5.31;nan
22688;BME280;11511;51.514;7.080;2024-02-23T03:11:26;98582.03;;;4.69;nan
22688;BME280;11511;51.514;7.080;2024-02-23T03:13:52;98595.97;;;4.68;nan
22688;BME280;11511;51.514;7.080;2024-02-23T03:16:17;98591.06;;;4.62;nan
22688;BME280;11511;51.514;7.080;2024-02-23T03:18:43;98600.72;;;4.60;nan
22688;BME280;11511;51.514;7.080;2024-02-23T03:21:08;98597.53;;;4.53;nan
22688;BME280;11511;51.514;7.080;2024-02-23T03:23:35;98595.13;;;4.49;nan
22688;BME280;11511;51.514;7.080;2024-02-23T03:26:00;98591.78;;;4.45;nan
22688;BME280;11511;51.514;7.080;2024-02-23T03:28:25;98599.09;;;4.76;nan
22688;BME280;11511;51.514;7.080;2024-02-23T03:30:51;98600.41;;;4.47;nan
22688;BME280;11511;51.514;7.080;2024-02-23T03:33:16;98596.53;;;4.37;nan
22688;BME280;11511;51.514;7.080;2024-02-23T03:35:41;98597.38;;;4.37;nan
22688;BME280;11511;51.514;7.080;2024-02-23T03:38:07;98605.19;;;4.37;nan
22688;BME280;11511;51.514;7.080;2024-02-23T03:40:33;98610.44;;;4.56;nan
22688;BME280;11511;51.514;7.080;2024-02-23T03:42:59;98606.47;;;4.66;nan
22688;BME280;11511;51.514;7.080;2024-02-23T03:45:24;98612.22;;;4.74;nan
22688;BME280;11511;51.514;7.080;2024-02-23T03:47:49;98609.81;;;4.70;nan
22688;BME280;11511;51.514;7.080;2024-02-23T03:50:15;98607.84;;;4.75;nan
22688;BME280;11511;51.514;7.080;2024-02-23T03:52:40;98606.78;;;4.79;nan
22688;BME280;11511;51.514;7.080;2024-02-23T03:55:05;98608.56;;;4.79;nan
22688;BME280;11511;51.514;7.080;2024-02-23T03:57:31;98605.16;;;4.76;nan
22688;BME280;11511;51.514;7.080;2024-02-23T03:59:56;98628.44;;;4.81;nan
22688;BME280;11511;51.514;7.080;2024-02-23T04:02:22;98603.06;;;4.85;nan
22688;BME280;11511;51.514;7.080;2024-02-23T04:04:47;98607.31;;;4.87;nan
22688;BME280;11511;51.514;7.080;2024-02-23T04:07:13;98608.34;;;4.83;nan
22688;BME280;11511;51.514;7.080;2024-02-23T04:09:38;98616.44;;;4.77;nan
22688;BME280;11511;51.514;7.080;2024-02-23T04:12:04;98622.31;;;4.82;nan
22688;BME280;11511;51.514;7.080;2024-02-23T04:14:29;98621.53;;;4.80;nan
22688;BME280;11511;51.514;7.080;2024-02-23T04:16:54;98620.41;;;4.86;nan
22688;BME280;11511;51.514;7.080;2024-02-23T04:19:21;98618.91;;;4.80;nan
22688;BME280;11511;51.514;7.080;2024-02-23T04:21:46;98621.91;;;4.91;nan
22688;BME280;11511;51.514;7.080;2024-02-23T04:24:11;98625.69;;;4.84;nan
22688;BME280;11511;51.514;7.080;2024-02-23T04:26:37;98626.41;;;4.88;nan
22688;BME280;11511;51.514;7.080;2024-02-23T04:29:02;98633.25;;;4.90;nan
22688;BME280;11511;51.514;7.080;2024-02-23T04:31:28;98633.38;;;5.25;nan
22688;BME280;11511;51.514;7.080;2024-02-23T04:33:53;98637.81;;;4.85;nan
22688;BME280;11511;51.514;7.080;2024-02-23T04:36:19;98639.66;;;5.02;nan
22688;BME280;11511;51.514;7.080;2024-02-23T04:38:45;98652.50;;;4.88;nan
22688;BME280;11511;51.514;7.080;2024-02-23T04:41:10;98657.56;;;4.91;nan
22688;BME280;11511;51.514;7.080;2024-02-23T04:43:35;98656.94;;;4.86;nan
22688;BME280;11511;51.514;7.080;2024-02-23T04:46:01;98649.53;;;4.95;nan
22688;BME280;11511;51.514;7.080;2024-02-23T04:48:26;98657.59;;;5.09;nan
22688;BME280;11511;51.514;7.080;2024-02-23T04:50:51;98660.53;;;5.21;nan
22688;BME280;11511;51.514;7.080;2024-02-23T04:53:17;98653.03;;;4.94;nan
22688;BME280;11511;51.514;7.080;2024-02-23T04:55:42;98657.50;;;4.92;nan
22688;BME280;11511;51.514;7.080;2024-02-23T04:58:07;98659.09;;;4.95;nan
22688;BME280;11511;51.514;7.080;2024-02-23T05:00:33;98671.53;;;4.90;nan
22688;BME280;11511;51.514;7.080;2024-02-23T05:03:01;98671.59;;;4.88;nan
22688;BME280;11511;51.514;7.080;2024-02-23T05:05:30;98662.94;;;4.88;nan
22688;BME280;11511;51.514;7.080;2024-02-23T05:07:57;98672.44;;;4.89;nan
22688;BME280;11511;51.514;7.080;2024-02-23T05:10:23;98681.81;;;4.93;nan
22688;BME280;11511;51.514;7.080;2024-02-23T05:12:48;98670.56;;;4.92;nan
22688;BME280;11511;51.514;7.080;2024-02-23T05:15:14;98674.75;;;4.95;nan
22688;BME280;11511;51.514;7.080;2024-02-23T05:17:39;98668.75;;;4.93;nan
22688;BME280;11511;51.514;7.080;2024-02-23T05:20:06;98687.31;;;4.87;nan
22688;BME280;11511;51.514;7.080;2024-02-23T05:22:33;98676.13;;;5.03;nan
22688;BME280;11511;51.514;7.080;2024-02-23T05:25:00;98677.38;;;4.95;nan
22688;BME280;11511;51.514;7.080;2024-02-23T05:27:26;98681.28;;;5.42;nan
22688;BME280;11511;51.514;7.080;2024-02-23T05:29:52;98675.78;;;4.92;nan
22688;BME280;11511;51.514;7.080;2024-02-23T05:32:18;98682.53;;;4.96;nan
22688;BME280;11511;51.514;7.080;2024-02-23T05:34:44;98680.88;;;5.14;nan
22688;BME280;11511;51.514;7.080;2024-02-23T05:37:09;98683.88;;;5.05;nan
22688;BME280;11511;51.514;7.080;2024-02-23T05:39:35;98688.75;;;5.13;nan
22688;BME280;11511;51.514;7.080;2024-02-23T05:42:00;98676.31;;;4.99;nan
22688;BME280;11511;51.514;7.080;2024-02-23T05:44:26;98681.06;;;5.09;nan
22688;BME280;11511;51.514;7.080;2024-02-23T05:46:51;98676.13;;;5.03;nan
22688;BME280;11511;51.514;7.080;2024-02-23T05:49:17;98681.56;;;5.18;nan
22688;BME280;11511;51.514;7.080;2024-02-23T05:51:42;98672.84;;;5.19;nan
22688;BME280;11511;51.514;7.080;2024-02-23T05:54:08;98674.94;;;5.10;nan
22688;BME280;11511;51.514;7.080;2024-02-23T05:56:33;98666.97;;;5.14;nan
22688;BME280;11511;51.514;7.080;2024-02-23T05:58:59;98658.91;;;4.99;nan
22688;BME280;11511;51.514;7.080;2024-02-23T06:01:24;98665.41;;;4.91;nan
22688;BME280;11511;51.514;7.080;2024-02-23T06:03:49;98657.78;;;4.86;nan
22688;BME280;11511;51.514;7.080;2024-02-23T06:06:15;98651.41;;;4.73;nan
22688;BME280;11511;51.514;7.080;2024-02-23T06:08:40;98653.34;;;4.68;nan
22688;BME280;11511;51.514;7.080;2024-02-23T06:11:05;98651.53;;;4.70;nan
22688;BME280;11511;51.514;7.080;2024-02-23T06:13:31;98651.00;;;4.82;nan
22688;BME280;11511;51.514;7.080;2024-02-23T06:15:56;98651.94;;;4.61;nan
22688;BME280;11511;51.514;7.080;2024-02-23T06:18:21;98643.50;;;4.74;nan
22688;BME280;11511;51.514;7.080;2024-02-23T06:20:47;98643.78;;;4.68;nan
22688;BME280;11511;51.514;7.080;2024-02-23T06:23:12;98645.69;;;4.65;nan
22688;BME280;11511;51.514;7.080;2024-02-23T06:25:38;98656.22;;;4.82;nan
22688;BME280;11511;51.514;7.080;2024-02-23T06:28:04;98653.75;;;4.98;nan
22688;BME280;11511;51.514;7.080;2024-02-23T06:30:29;98655.44;;;4.99;nan
22688;BME280;11511;51.514;7.080;2024-02-23T06:32:54;98653.63;;;5.01;nan
22688;BME280;11511;51.514;7.080;2024-02-23T06:35:19;98654.91;;;4.92;nan
22688;BME280;11511;51.514;7.080;2024-02-23T06:37:46;98643.13;;;5.02;nan
22688;BME280;11511;51.514;7.080;2024-02-23T06:40:12;98652.63;;;5.03;nan
22688;BME280;11511;51.514;7.080;2024-02-23T06:42:37;98645.16;;;4.96;nan
22688;BME280;11511;51.514;7.080;2024-02-23T06:45:03;98647.34;;;4.86;nan
22688;BME280;11511;51.514;7.080;2024-02-23T06:47:28;98638.09;;;4.98;nan
22688;BME280;11511;51.514;7.080;2024-02-23T06:49:53;98646.78;;;4.98;nan
22688;BME280;11511;51.514;7.080;2024-02-23T06:52:18;98644.53;;;4.91;nan
22688;BME280;11511;51.514;7.080;2024-02-23T06:54:44;98639.97;;;4.75;nan
22688;BME280;11511;51.514;7.080;2024-02-23T06:57:10;98640.50;;;4.84;nan
22688;BME280;11511;51.514;7.080;2024-02-23T06:59:35;98649.13;;;4.65;nan
22688;BME280;11511;51.514;7.080;2024-02-23T07:02:01;98654.69;;;4.58;nan
22688;BME280;11511;51.514;7.080;2024-02-23T07:04:26;98654.84;;;4.73;nan
22688;BME280;11511;51.514;7.080;2024-02-23T07:06:53;98651.41;;;4.73;nan
22688;BME280;11511;51.514;7.080;2024-02-23T07:09:18;98662.31;;;4.62;nan
22688;BME280;11511;51.514;7.080;2024-02-23T07:11:44;98656.47;;;4.76;nan
22688;BME280;11511;51.514;7.080;2024-02-23T07:14:10;98668.28;;;4.85;nan
22688;BME280;11511;51.514;7.080;2024-02-23T07:16:38;98660.72;;;4.79;nan
22688;BME280;11511;51.514;7.080;2024-02-23T07:19:04;98661.97;;;4.70;nan
22688;BME280;11511;51.514;7.080;2024-02-23T07:21:29;98666.25;;;4.91;nan
22688;BME280;11511;51.514;7.080;2024-02-23T07:23:55;98660.97;;;5.12;nan
22688;BME280;11511;51.514;7.080;2024-02-23T07:26:20;98670.84;;;5.24;nan
22688;BME280;11511;51.514;7.080;2024-02-23T07:28:47;98657.38;;;5.33;nan
22688;BME280;11511;51.514;7.080;2024-02-23T07:31:12;98657.94;;;5.39;nan
22688;BME280;11511;51.514;7.080;2024-02-23T07:33:37;98662.16;;;5.23;nan
22688;BME280;11511;51.514;7.080;2024-02-23T07:36:03;98665.28;;;5.31;nan
22688;BME280;11511;51.514;7.080;2024-02-23T07:38:28;98660.94;;;5.49;nan
22688;BME280;11511;51.514;7.080;2024-02-23T07:40:54;98652.56;;;5.24;nan
22688;BME280;11511;51.514;7.080;2024-02-23T07:43:19;98658.03;;;5.19;nan
22688;BME280;11511;51.514;7.080;2024-02-23T07:45:44;98652.34;;;5.28;nan
22688;BME280;11511;51.514;7.080;2024-02-23T07:48:09;98650.50;;;5.85;nan
22688;BME280;11511;51.514;7.080;2024-02-23T07:50:35;98656.50;;;6.23;nan
22688;BME280;11511;51.514;7.080;2024-02-23T07:53:00;98651.94;;;5.92;nan
22688;BME280;11511;51.514;7.080;2024-02-23T07:55:25;98666.47;;;5.79;nan
22688;BME280;11511;51.514;7.080;2024-02-23T07:57:51;98667.38;;;5.61;nan
22688;BME280;11511;51.514;7.080;2024-02-23T08:00:16;98668.63;;;5.52;nan
22688;BME280;11511;51.514;7.080;2024-02-23T08:02:41;98684.44;;;5.49;nan
22688;BME280;11511;51.514;7.080;2024-02-23T08:05:07;98665.03;;;5.55;nan
22688;BME280;11511;51.514;7.080;2024-02-23T08:07:32;98672.25;;;5.68;nan
22688;BME280;11511;51.514;7.080;2024-02-23T08:09:57;98670.25;;;5.73;nan
22688;BME280;11511;51.514;7.080;2024-02-23T08:12:23;98658.19;;;5.52;nan
22688;BME280;11511;51.514;7.080;2024-02-23T08:14:48;98673.41;;;5.80;nan
22688;BME280;11511;51.514;7.080;2024-02-23T08:17:15;98680.63;;;6.11;nan
22688;BME280;11511;51.514;7.080;2024-02-23T08:19:41;98674.25;;;5.81;nan
22688;BME280;11511;51.514;7.080;2024-02-23T08:22:06;98679.84;;;5.73;nan
22688;BME280;11511;51.514;7.080;2024-02-23T08:24:31;98693.44;;;5.79;nan
22688;BME280;11511;51.514;7.080;2024-02-23T08:26:56;98692.75;;;5.95;nan
22688;BME280;11511;51.514;7.080;2024-02-23T08:29:22;98701.91;;;6.03;nan
22688;BME280;11511;51.514;7.080;2024-02-23T08:31:48;98698.00;;;5.95;nan
22688;BME280;11511;51.514;7.080;2024-02-23T08:34:13;98694.25;;;6.00;nan
22688;BME280;11511;51.514;7.080;2024-02-23T08:36:38;98691.00;;;6.13;nan
22688;BME280;11511;51.514;7.080;2024-02-23T08:39:03;98693.25;;;6.20;nan
22688;BME280;11511;51.514;7.080;2024-02-23T08:41:29;98692.22;;;6.05;nan
22688;BME280;11511;51.514;7.080;2024-02-23T08:43:54;98693.41;;;6.00;nan
22688;BME280;11511;51.514;7.080;2024-02-23T08:46:20;98703.84;;;6.17;nan
22688;BME280;11511;51.514;7.080;2024-02-23T08:48:46;98695.78;;;6.22;nan
22688;BME280;11511;51.514;7.080;2024-02-23T08:51:11;98695.72;;;6.40;nan
22688;BME280;11511;51.514;7.080;2024-02-23T08:53:36;98706.41;;;6.36;nan
22688;BME280;11511;51.514;7.080;2024-02-23T08:56:02;98705.97;;;6.45;nan
22688;BME280;11511;51.514;7.080;2024-02-23T08:58:27;98701.88;;;6.22;nan
22688;BME280;11511;51.514;7.080;2024-02-23T09:00:52;98700.41;;;6.34;nan
22688;BME280;11511;51.514;7.080;2024-02-23T09:03:18;98702.44;;;6.29;nan
22688;BME280;11511;51.514;7.080;2024-02-23T09:05:43;98692.09;;;6.43;nan
22688;BME280;11511;51.514;7.080;2024-02-23T09:08:08;98700.03;;;6.41;nan
22688;BME280;11511;51.514;7.080;2024-02-23T09:10:33;98698.63;;;6.34;nan
22688;BME280;11511;51.514;7.080;2024-02-23T09:12:58;98703.25;;;6.64;nan
22688;BME280;11511;51.514;7.080;2024-02-23T09:15:24;98698.25;;;6.76;nan
22688;BME280;11511;51.514;7.080;2024-02-23T09:17:49;98683.47;;;7.08;nan
22688;BME280;11511;51.514;7.080;2024-02-23T09:20:15;98692.56;;;7.34;nan
22688;BME280;11511;51.514;7.080;2024-02-23T09:22:40;98701.84;;;7.40;nan
22688;BME280;11511;51.514;7.080;2024-02-23T09:25:06;98700.50;;;7.33;nan
22688;BME280;11511;51.514;7.080;2024-02-23T09:27:31;98704.91;;;7.32;nan
22688;BME280;11511;51.514;7.080;2024-02-23T09:29:57;98704.50;;;7.07;nan
22688;BME280;11511;51.514;7.080;2024-02-23T09:32:23;98706.03;;;7.11;nan
22688;BME280;11511;51.514;7.080;2024-02-23T09:34:49;98710.38;;;7.43;nan
22688;BME280;11511;51.514;7.080;2024-02-23T09:37:14;98707.69;;;7.76;nan
22688;BME280;11511;51.514;7.080;2024-02-23T09:39:39;98711.16;;;7.45;nan
22688;BME280;11511;51.514;7.080;2024-02-23T09:42:06;98703.44;;;7.42;nan
22688;BME280;11511;51.514;7.080;2024-02-23T09:44:34;98716.91;;;7.36;nan
22688;BME280;11511;51.514;7.080;2024-02-23T09:47:00;98713.72;;;7.14;nan
22688;BME280;11511;51.514;7.080;2024-02-23T09:49:26;98709.06;;;7.19;nan
22688;BME280;11511;51.514;7.080;2024-02-23T09:51:51;98714.91;;;7.24;nan
22688;BME280;11511;51.514;7.080;2024-02-23T09:54:18;98711.66;;;7.36;nan
22688;BME280;11511;51.514;7.080;2024-02-23T09:56:43;98713.59;;;7.48;nan
22688;BME280;11511;51.514;7.080;2024-02-23T09:59:08;98712.34;;;7.71;nan
22688;BME280;11511;51.514;7.080;2024-02-23T10:01:34;98716.16;;;7.66;nan
22688;BME280;11511;51.514;7.080;2024-02-23T10:04:01;98714.88;;;7.89;nan
22688;BME280;11511;51.514;7.080;2024-02-23T10:06:29;98716.22;;;8.57;nan
22688;BME280;11511;51.514;7.080;2024-02-23T10:08:54;98709.56;;;7.90;nan
22688;BME280;11511;51.514;7.080;2024-02-23T10:11:20;98705.66;;;7.81;nan
22688;BME280;11511;51.514;7.080;2024-02-23T10:13:47;98720.28;;;7.54;nan
22688;BME280;11511;51.514;7.080;2024-02-23T10:16:12;98723.25;;;7.64;nan
22688;BME280;11511;51.514;7.080;2024-02-23T10:18:37;98709.56;;;7.59;nan
22688;BME280;11511;51.514;7.080;2024-02-23T10:21:03;98715.91;;;7.86;nan
22688;BME280;11511;51.514;7.080;2024-02-23T10:23:29;98725.97;;;7.62;nan
22688;BME280;11511;51.514;7.080;2024-02-23T10:25:54;98723.84;;;7.53;nan
22688;BME280;11511;51.514;7.080;2024-02-23T10:28:19;98730.69;;;8.03;nan
22688;BME280;11511;51.514;7.080;2024-02-23T10:30:47;98704.38;;;8.04;nan
22688;BME280;11511;51.514;7.080;2024-02-23T10:33:13;98724.81;;;8.45;nan
22688;BME280;11511;51.514;7.080;2024-02-23T10:35:39;98726.94;;;8.38;nan
22688;BME280;11511;51.514;7.080;2024-02-23T10:38:05;98727.91;;;8.52;nan
22688;BME280;11511;51.514;7.080;2024-02-23T10:40:34;98744.63;;;8.19;nan
22688;BME280;11511;51.514;7.080;2024-02-23T10:43:05;98734.47;;;7.97;nan
22688;BME280;11511;51.514;7.080;2024-02-23T10:45:33;98742.34;;;7.97;nan
22688;BME280;11511;51.514;7.080;2024-02-23T10:47:59;98737.63;;;7.88;nan
22688;BME280;11511;51.514;7.080;2024-02-23T10:50:24;98736.03;;;7.86;nan
22688;BME280;11511;51.514;7.080;2024-02-23T10:52:50;98733.31;;;8.03;nan
22688;BME280;11511;51.514;7.080;2024-02-23T10:55:15;98735.94;;;8.03;nan
22688;BME280;11511;51.514;7.080;2024-02-23T10:57:41;98729.91;;;8.01;nan
22688;BME280;11511;51.514;7.080;2024-02-23T11:00:07;98726.66;;;8.27;nan
22688;BME280;11511;51.514;7.080;2024-02-23T11:02:56;98736.00;;;8.33;nan
22688;BME280;11511;51.514;7.080;2024-02-23T11:05:20;98732.41;;;7.88;nan
22688;BME280;11511;51.514;7.080;2024-02-23T11:07:46;98735.94;;;7.87;nan
22688;BME280;11511;51.514;7.080;2024-02-23T11:10:14;98736.44;;;8.09;nan
22688;BME280;11511;51.514;7.080;2024-02-23T11:12:40;98735.50;;;8.10;nan
22688;BME280;11511;51.514;7.080;2024-02-23T11:15:05;98724.94;;;8.12;nan
22688;BME280;11511;51.514;7.080;2024-02-23T11:17:31;98727.97;;;8.04;nan
22688;BME280;11511;51.514;7.080;2024-02-23T11:19:57;98730.84;;;8.15;nan
22688;BME280;11511;51.514;7.080;2024-02-23T11:22:23;98740.66;;;7.80;nan
22688;BME280;11511;51.514;7.080;2024-02-23T11:24:48;98729.00;;;7.86;nan
22688;BME280;11511;51.514;7.080;2024-02-23T11:27:14;98733.72;;;7.95;nan
22688;BME280;11511;51.514;7.080;2024-02-23T11:29:42;98737.28;;;7.94;nan
22688;BME280;11511;51.514;7.080;2024-02-23T11:32:15;98730.34;;;7.77;nan
22688;BME280;11511;51.514;7.080;2024-02-23T11:34:40;98728.09;;;7.87;nan
22688;BME280;11511;51.514;7.080;2024-02-23T11:37:09;98725.53;;;7.86;nan
22688;BME280;11511;51.514;7.080;2024-02-23T11:39:35;98723.53;;;7.91;nan
22688;BME280;11511;51.514;7.080;2024-02-23T11:42:02;98729.50;;;8.08;nan
22688;BME280;11511;51.514;7.080;2024-02-23T11:44:27;98718.91;;;7.94;nan
22688;BME280;11511;51.514;7.080;2024-02-23T11:46:52;98724.81;;;8.29;nan
22688;BME280;11511;51.514;7.080;2024-02-23T11:49:17;98732.28;;;8.05;nan
22688;BME280;11511;51.514;7.080;2024-02-23T11:51:43;98724.06;;;7.96;nan
22688;BME280;11511;51.514;7.080;2024-02-23T11:54:09;98723.81;;;8.00;nan
22688;BME280;11511;51.514;7.080;2024-02-23T11:56:35;98732.63;;;7.99;nan
22688;BME280;11511;51.514;7.080;2024-02-23T11:59:00;98722.22;;;7.98;nan
22688;BME280;11511;51.514;7.080;2024-02-23T12:01:28;98725.47;;;7.87;nan
22688;BME280;11511;51.514;7.080;2024-02-23T12:03:53;98720.91;;;7.91;nan
22688;BME280;11511;51.514;7.080;2024-02-23T12:06:19;98713.63;;;7.80;nan
22688;BME280;11511;51.514;7.080;2024-02-23T12:08:45;98724.50;;;8.20;nan
22688;BME280;11511;51.514;7.080;2024-02-23T12:11:11;98711.81;;;7.96;nan
22688;BME280;11511;51.514;7.080;2024-02-23T12:13:39;98726.56;;;7.83;nan
22688;BME280;11511;51.514;7.080;2024-02-23T12:16:04;98728.84;;;7.89;nan
22688;BME280;11511;51.514;7.080;2024-02-23T12:18:35;98719.88;;;7.77;nan
22688;BME280;11511;51.514;7.080;2024-02-23T12:21:04;98727.22;;;7.71;nan
22688;BME280;11511;51.514;7.080;2024-02-23T12:23:42;98730.19;;;7.65;nan
22688;BME280;11511;51.514;7.080;2024-02-23T12:26:08;98729.44;;;7.78;nan
22688;BME280;11511;51.514;7.080;2024-02-23T12:28:33;98724.75;;;7.99;nan
22688;BME280;11511;51.514;7.080;2024-02-23T12:30:59;98721.97;;;8.18;nan
22688;BME280;11511;51.514;7.080;2024-02-23T12:33:26;98740.41;;;8.17;nan
22688;BME280;11511;51.514;7.080;2024-02-23T12:35:53;98736.50;;;8.08;nan
22688;BME280;11511;51.514;7.080;2024-02-23T12:38:18;98754.53;;;7.98;nan
22688;BME280;11511;51.514;7.080;2024-02-23T12:40:43;98741.50;;;7.97;nan
22688;BME280;11511;51.514;7.080;2024-02-23T12:43:09;98743.44;;;7.93;nan
22688;BME280;11511;51.514;7.080;2024-02-23T12:45:34;98748.34;;;7.99;nan
22688;BME280;11511;51.514;7.080;2024-02-23T12:47:59;98746.19;;;7.92;nan
22688;BME280;11511;51.514;7.080;2024-02-23T12:50:24;98739.72;;;7.97;nan
22688;BME280;11511;51.514;7.080;2024-02-23T12:52:50;98739.03;;;7.94;nan
22688;BME280;11511;51.514;7.080;2024-02-23T12:55:15;98737.28;;;7.94;nan
22688;BME280;11511;51.514;7.080;2024-02-23T12:57:40;98728.69;;;7.92;nan
22688;BME280;11511;51.514;7.080;2024-02-23T13:00:06;98733.38;;;8.01;nan
22688;BME280;11511;51.514;7.080;2024-02-23T13:02:31;98737.63;;;7.72;nan
22688;BME280;11511;51.514;7.080;2024-02-23T13:04:56;98743.22;;;7.82;nan
22688;BME280;11511;51.514;7.080;2024-02-23T13:07:21;98747.69;;;7.80;nan
22688;BME280;11511;51.514;7.080;2024-02-23T13:09:47;98748.09;;;7.57;nan
22688;BME280;11511;51.514;7.080;2024-02-23T13:12:12;98741.31;;;7.53;nan
22688;BME280;11511;51.514;7.080;2024-02-23T13:14:37;98760.31;;;7.89;nan
22688;BME280;11511;51.514;7.080;2024-02-23T13:17:02;98746.41;;;8.19;nan
22688;BME280;11511;51.514;7.080;2024-02-23T13:19:28;98755.13;;;8.03;nan
22688;BME280;11511;51.514;7.080;2024-02-23T13:21:53;98778.19;;;7.97;nan
22688;BME280;11511;51.514;7.080;2024-02-23T13:24:19;98743.28;;;8.12;nan